Monday, December 17, 2018, 5:28 AM EST
Back to Local

KMTN, Baltimore / Martin

Location: Middle River, MD, United States Lat: 39.333
Local Time: 5:28 AM EST (10:28 GMT) Lon: -76.417
Time Zone: US/Eastern Elev: 22 ft

Show me the last for .
Show Coded

Time T Td Feel RH Dir Speed Gust Alt SLP Vis Weather Sky Remarks
2018-12-17 05:00 39 37 - 93 - Calm - 29.86 - 10 CLR None
2018-12-17 04:42 41 41 - 100 - Calm - 29.86 - 10 SCT033 None
2018-12-17 04:21 41 41 - 100 - Calm - 29.87 - 10 OVC033 None
2018-12-17 04:00 41 41 - 100 - Calm - 29.87 - 10 OVC033 None
2018-12-17 03:42 43 39 - 86 - Calm - 29.88 - 10 OVC033 None
2018-12-17 03:21 43 39 41 86 220° 3 - 29.88 - 10 OVC031 None
2018-12-17 03:00 43 39 - 86 - Calm - 29.89 - 10 OVC031 None
2018-12-17 02:42 43 39 41 86 220° 3 - 29.89 - 10 OVC031 None
2018-12-17 02:21 41 39 38 93 240° 5 - 29.90 - 10 OVC031 None
2018-12-17 02:00 43 39 41 86 220° 3 - 29.89 - 10 OVC033 None
2018-12-17 01:42 41 39 37 93 240° 6 - 29.89 - 10 OVC033 None
2018-12-17 01:21 41 39 38 93 240° 5 - 29.89 - 10 OVC033 None
2018-12-17 01:00 41 39 39 93 240° 3 - 29.89 - 10 OVC033 None
2018-12-17 00:42 41 39 37 93 240° 6 - 29.89 - 10 OVC033 None
2018-12-17 00:21 41 39 38 93 250° 5 - 29.90 - 10 SCT027 OVC033 None
2018-12-17 00:00 41 39 37 93 260° 6 - 29.90 - 10 BKN025 BKN034 OVC070 None
2018-12-16 23:42 41 39 36 93 260° 7 - 29.91 - 10 OVC021 None
2018-12-16 23:21 41 41 37 100 260° 6 - 29.92 - 10 OVC019 None
2018-12-16 23:00 41 41 36 100 270° 8 - 29.92 - 10 BKN021 OVC030 None
2018-12-16 22:42 41 41 35 100 280° 9 - 29.92 - 10 BKN030 OVC039 None
2018-12-16 22:21 41 39 37 93 290° 6 - 29.92 - 10 SCT016 OVC036 None
2018-12-16 21:45 43 39 38 86 300° 8 - 29.91 - 10 SCT030 OVC042 None
2018-12-16 20:54 43 39 37 86 290° 10 - 29.90 - 10 SCT016 BKN030 OVC042 None
2018-12-16 19:45 43 39 37 86 310° 9 - 29.90 - 10 BKN030 OVC038 None
2018-12-16 18:45 43 39 37 86 320° 10 - 29.89 - 10 BKN015 OVC030 None
2018-12-16 17:50 43 41 35 93 310° 10 16 29.88 - 10 SCT015 BKN030 BKN037 None
2018-12-16 16:50 43 41 35 93 310° 12 17 29.87 - 7 -DZ BKN013 BKN017 OVC028 None
2018-12-16 15:50 43 43 35 100 320° 10 17 29.86 - 5 -DZ BKN014 OVC025 None
2018-12-16 14:45 43 43 35 100 320° 10 16 29.83 - 7 -RA BKN014 BKN021 OVC026 None
2018-12-16 13:45 45 45 40 100 330° 9 - 29.82 - 6 BR BKN011 OVC018 None
2018-12-16 12:45 45 45 41 100 330° 7 - 29.83 - 2 -RA BR BKN007 OVC011 None
2018-12-16 11:45 45 45 41 100 340° 7 - 29.85 - 2 RA BR OVC007 None
2018-12-16 10:45 45 45 42 100 340° 5 - 29.88 - 2 -RA BR OVC005 None
2018-12-16 10:01 45 45 41 100 360° 6 - 29.90 - 3 -RA BR OVC005 None
2018-12-16 09:45 45 45 41 100 340° 6 - 29.91 - 1 -DZ BR OVC005 None
2018-12-16 08:45 45 45 42 100 10° 5 - 29.91 - 1 -DZ BR OVC007 None
2018-12-16 07:54 45 45 39 100 20° 10 - 29.90 - 2 -DZ BR OVC007 None
2018-12-16 07:24 45 45 40 100 30° 8 - 29.90 - 2 BR OVC007 None
2018-12-16 06:45 45 45 39 100 40° 10 - 29.90 - 5 BR OVC009 None
2018-12-16 05:45 45 45 38 100 50° 14 - 29.90 - 4 -DZ BR OVC007 None
2018-12-16 05:30 45 45 41 100 30° 7 - 29.90 - 4 DZ OVC007 None

Support USWX by starting your Amazon purchase here.